Terminal Aerodrome Forecast
Issued by NWS

Home | Current Version | Previous Version | Text Only | Print | Product List | Glossary On
Versions: 1 2 3 4 5 6 7 8 9 10 11 12 13 14 15 16 17 18 19 20
728
FTUS43 KGRR 230522
TAFAZO
TAF
KAZO 230522Z 2306/2406 21007KT P6SM -SHRA BKN070
     FM230700 20006KT 6SM -SHRA BR OVC045
     FM231400 20006KT 6SM BR VCTS OVC035CB
     FM240000 04004KT 5SM -SHRA BR OVC035
     FM240200 08003KT 6SM -SHRA BR OVC045=

USA.gov is the U.S. government's official web portal to all federal, state and local government web resources and services.